« Back
NWS Peachtree City, Ga » Text Product » MCN Terminal Aerodrome Forecast

Printer-friendly Version
Current Version              Previous Versions:   1  2  3  4  5  6  7  8  9  

Terminal Aerodrome Forecast

FTUS42 KFFC 270530
KMCN 270530Z 2706/2806 06004KT P6SM SCT030
     FM270900 05003KT P6SM BKN012
     FM271400 05005KT P6SM BKN020
     FM271700 06007KT P6SM SCT030 SCT250
     FM280500 07003KT P6SM SCT021=

USA.gov is the U.S. government's official web portal to all federal, state and local government web resources and services.